Island Park, ID

2:59 PM MST on January 31, 2015 (GMT -0700)
Centennial Shores | Change Station
CLOSE
Current Station
Personal Weather Station
Location: Island Park, ID
Elevation: 6295 ft
Nearby Weather Stations

Elev 6295 ft 44.44 °N, 111.46 °W | Updated 10 minutes ago

Mostly Cloudy
Mostly Cloudy
26.2 °F
Feels Like 20 °F
N
5.0
Wind Variable Wind from NW
Gusts 9.0 mph

Today
High -- | Low -- °F
--% Chance of Precip.
Yesterday
High -- | Low -- °F
Precip. -- in
7:45 AM 5:33 PM
Waxing Gibbous, 91% visible
Pressure 30.15 in
Visibility -9999.0 miles
Clouds
Windchill 20 °F
Dew Point 17 °F
Humidity 22%
Rainfall -999.00 in
Snow Depth Not available.
UV Not available.
Pollen .30 out of 12
Air Quality Not available.
Flu Activity Not available.
METAR KP60 312156Z AUTO 27016G23KT M01/M13 A2995 RMK AO1 SLP208 T10111128

More Conditions Fewer Conditions

Pressure 30.15 in
Visibility -9999.0 miles
Clouds
Windchill 20 °F
Dew Point 17 °F
Humidity 22%
Rainfall -999.00 in
Snow Depth Not available.
UV Not available.
Pollen .30 out of 12
Air Quality Not available.
Flu Activity Not available.
METAR KP60 312156Z AUTO 27016G23KT M01/M13 A2995 RMK AO1 SLP208 T10111128

More Conditions Fewer Conditions

10-Day Weather Forecast

Almanac

Astronomy

Jan. 31, 2015 Rise Set
Actual Time
Civil Twilight
Nautical Twilight
Astronomical Twilight
Moon
Length of Visible Light
Length of Day
Tomorrow will be .
, % of the Moon is Illuminated

Today's Extremes

State Highs State Lows

Community

WunderPhotos

Upload Photos

1,792,213 photos uploaded!

WunderBlogs® & News

Nearby

Air Quality

  Air Quality AQ Index Pollutant
Not available.

Snow Depth

Station Depth Elevation

Earthquake Activity

City Distance Mag. Time & Date
Minimum magnitude displayed is 2.5.

Coastal Water Temperatures

Place Temperature

Nearby Weather Stations